Detalii statie AGRICHIM STEFAN CEL MARE [0000198F]

Toti senzorii

Date Temperatura solului [C]Precipitatii [mm]Voltaj baterie [mV]HC Air temperature [C]HC Relative humidity [%]Punctul de roua [C]
medieminmaxsumaultimamedieminmaxmediemediemin
2018-12-09 15:00:00 2.2 2.1 2.3 0.2 7040 3.37 3.26 3.46 0 0 0
2018-12-09 16:00:00 2.3 2.2 2.4 0.2 6962 2.98 2.71 3.27 0 0 0
2018-12-09 17:00:00 2.2 2.2 2.3 0.2 6932 2.51 2.37 2.71 0 0 0
2018-12-09 18:00:00 2.2 2.1 2.3 0.2 6904 2.25 2.06 2.55 0 0 0
2018-12-09 19:00:00 2.2 2.2 2.3 0 6874 2.53 2.4 2.64 0 0 0
2018-12-09 20:00:00 2.2 2.2 2.5 0 6834 1.83 1.41 2.36 0 0 0
2018-12-09 21:00:00 2.3 2.3 2.5 0 6844 1.12 0.44 1.71 0 0 0
2018-12-09 22:00:00 2.3 2.2 2.5 0 6834 0.22 -0.28 0.87 0 0 0
2018-12-09 23:00:00 2.2 2.2 2.4 0 6816 -0.5 -0.74 -0.29 0 0 0
2018-12-10 00:00:00 2.3 2.2 2.4 0 6816 -0.16 -0.3 -0.03 0 0 0
2018-12-10 01:00:00 2.2 2.1 2.3 0 6806 -0.16 -0.24 -0.05 0 0 0
2018-12-10 02:00:00 2.2 2.1 2.3 0 6826 -0.07 -0.19 0.26 0 0 0
2018-12-10 03:00:00 2.2 2.1 2.3 0 6826 0.66 0.41 0.86 0 0 0
2018-12-10 04:00:00 2.2 2.1 2.3 0 6816 0.9 0.55 1.27 0 0 0
2018-12-10 05:00:00 2.2 2.1 2.3 0 6816 1.08 0.91 1.3 0 0 0
2018-12-10 06:00:00 2.2 2.1 2.3 0 6816 1.01 0.84 1.18 0 0 0
2018-12-10 07:00:00 2.2 2.1 2.4 0.2 6826 1.22 1.18 1.3 0 0 0
2018-12-10 08:00:00 2.2 2.2 2.3 0 6816 1.39 1.31 1.5 0 0 0
2018-12-10 09:00:00 2.2 2.1 2.3 0 6844 1.24 0.99 1.35 0 0 0
2018-12-10 10:00:00 2.2 2.1 2.3 0 6932 0.93 0.81 1.15 0 0 0
2018-12-10 11:00:00 2.3 2.3 2.4 0 7020 0.78 0.55 1.09 0 0 0
2018-12-10 12:00:00 2.4 2.2 2.5 0 7088 0.57 0.47 0.69 0 0 0
2018-12-10 13:00:00 2.5 2.5 2.7 0 7098 0.72 0.26 0.94 0 0 0
2018-12-10 14:00:00 2.6 2.5 2.7 0 7098 1.42 1.05 1.71 0 0 0
2018-12-10 15:00:00 2.7 2.7 2.8 0 7020 1.39 1.21 1.54 0 0 0
2018-12-10 16:00:00 2.8 2.7 2.9 0 6904 1.12 0.8 1.42 0 0 0
2018-12-10 17:00:00 2.8 2.7 2.9 0 6854 0.45 0.23 0.72 0 0 0
2018-12-10 18:00:00 2.8 2.8 3 0 6854 0.03 -0.1 0.23 0 0 0
2018-12-10 19:00:00 2.8 2.8 2.9 0 6834 -0.17 -0.32 -0.1 0 0 0
2018-12-10 20:00:00 2.8 2.7 2.9 0 6816 -0.36 -0.42 -0.32 0 0 0
2018-12-10 21:00:00 2.7 2.7 2.9 0 6826 -0.35 -0.45 -0.2 0 0 0
2018-12-10 22:00:00 2.7 2.6 2.9 0 6826 -0.28 -0.38 -0.19 0 0 0
2018-12-10 23:00:00 2.7 2.7 2.8 0 6806 -0.28 -0.35 -0.24 0 0 0
2018-12-11 00:00:00 2.7 2.7 2.8 0 6816 -0.2 -0.29 -0.14 0 0 0
2018-12-11 01:00:00 2.6 2.6 2.7 0 6806 0.02 -0.14 0.29 0 0 0
2018-12-11 02:00:00 2.6 2.6 2.7 0 6816 0.03 -0.39 0.29 0 0 0
2018-12-11 03:00:00 2.6 2.5 2.7 0 6796 -0.53 -1.02 -0.24 0 0 0
2018-12-11 04:00:00 2.6 2.6 2.7 0 6806 -0.92 -0.98 -0.87 0 0 0
2018-12-11 05:00:00 2.6 2.6 2.7 0 6806 -0.98 -1.05 -0.89 0 0 0
2018-12-11 06:00:00 2.5 2.5 2.7 0 6806 -0.59 -0.85 -0.38 0 0 0
2018-12-11 07:00:00 2.5 2.4 2.7 0 6796 -0.32 -0.37 -0.26 0 0 0
2018-12-11 08:00:00 2.5 2.5 2.6 0 6786 -0.19 -0.26 -0.14 0 0 0
2018-12-11 09:00:00 2.5 2.4 2.6 0 6826 -0.09 -0.14 0.09 0 0 0
2018-12-11 10:00:00 2.5 2.4 2.6 0.2 6884 0.8 0.19 1.28 0 0 0
2018-12-11 11:00:00 2.5 2.4 2.7 0.2 6972 1.82 1.35 2.17 0 0 0